createdAt,value
2022-10-18T00:00:32.020Z,0.00
2022-10-18T00:01:32.019Z,0.00
2022-10-18T00:02:32.054Z,0.00
2022-10-18T00:03:32.191Z,0.00
2022-10-18T00:04:31.983Z,0.00
2022-10-18T00:05:31.967Z,0.00
2022-10-18T00:06:31.975Z,0.00
2022-10-18T00:07:32.265Z,0.00
2022-10-18T00:08:31.954Z,0.00
2022-10-18T00:09:31.936Z,0.00
2022-10-18T00:10:31.907Z,0.00
2022-10-18T00:11:38.438Z,0.00
2022-10-18T00:12:31.906Z,0.00
2022-10-18T00:13:31.896Z,0.00
2022-10-18T00:14:31.930Z,0.00
2022-10-18T00:15:31.871Z,0.00
2022-10-18T00:16:31.848Z,0.00
2022-10-18T00:17:32.271Z,0.00
2022-10-18T00:18:31.819Z,0.00
2022-10-18T00:19:31.823Z,0.00
2022-10-18T00:20:31.826Z,0.00
2022-10-18T00:21:31.831Z,0.00
2022-10-18T00:22:32.136Z,0.00
2022-10-18T00:23:31.765Z,0.00
2022-10-18T00:24:31.759Z,0.00
2022-10-18T00:25:31.750Z,0.00
2022-10-18T00:26:31.751Z,0.00
2022-10-18T00:27:31.729Z,0.00
2022-10-18T00:28:31.961Z,0.00
2022-10-18T00:29:31.712Z,0.00
2022-10-18T00:30:31.692Z,0.00
2022-10-18T00:31:32.743Z,0.00
2022-10-18T00:32:31.989Z,0.00
2022-10-18T00:33:31.649Z,0.00
2022-10-18T00:34:31.653Z,0.00
2022-10-18T00:35:31.647Z,0.00
2022-10-18T00:36:31.623Z,0.00
2022-10-18T00:37:31.604Z,0.00
2022-10-18T00:38:31.600Z,0.00
2022-10-18T00:39:31.595Z,0.00
2022-10-18T00:40:31.579Z,0.00
2022-10-18T00:41:31.565Z,0.00
2022-10-18T00:42:31.828Z,0.00
2022-10-18T00:43:31.588Z,0.00
2022-10-18T00:44:31.548Z,0.00
2022-10-18T00:45:31.567Z,0.00
2022-10-18T00:46:31.516Z,0.00
2022-10-18T00:47:31.509Z,0.00
2022-10-18T00:48:31.510Z,0.00
2022-10-18T00:49:31.470Z,0.00
2022-10-18T00:50:31.470Z,0.00
2022-10-18T00:51:31.448Z,0.00
2022-10-18T00:52:31.699Z,0.00
2022-10-18T00:53:31.438Z,0.00
2022-10-18T00:54:31.446Z,0.00
2022-10-18T00:55:31.425Z,0.00
2022-10-18T00:56:31.395Z,0.00
2022-10-18T00:57:31.395Z,0.00
2022-10-18T00:58:31.378Z,0.00
2022-10-18T00:59:31.415Z,0.00
2022-10-18T01:00:31.360Z,0.00
2022-10-18T01:01:31.376Z,0.00
2022-10-18T01:02:31.654Z,0.00
2022-10-18T01:03:31.321Z,0.00
2022-10-18T01:04:31.308Z,0.00
2022-10-18T01:05:31.306Z,0.00
2022-10-18T01:06:31.290Z,0.00
2022-10-18T01:07:31.591Z,0.00
2022-10-18T01:08:31.261Z,0.00
2022-10-18T01:09:31.248Z,0.00
2022-10-18T01:10:31.251Z,0.00
2022-10-18T01:11:31.233Z,0.00
2022-10-18T01:12:31.229Z,0.00
2022-10-18T01:13:31.201Z,0.00
2022-10-18T01:14:31.197Z,0.00
2022-10-18T01:15:31.180Z,0.00
2022-10-18T01:16:31.237Z,0.00
2022-10-18T01:17:31.448Z,0.00
2022-10-18T01:18:31.158Z,0.00
2022-10-18T01:19:31.184Z,0.00
2022-10-18T01:20:31.137Z,0.00
2022-10-18T01:21:31.122Z,0.00
2022-10-18T01:22:31.125Z,0.00
2022-10-18T01:23:31.102Z,0.00
2022-10-18T01:24:31.115Z,0.00
2022-10-18T01:25:31.072Z,0.00
2022-10-18T01:26:31.079Z,0.00
2022-10-18T01:27:31.414Z,0.00
2022-10-18T01:28:31.060Z,0.00
2022-10-18T01:29:31.033Z,0.00
2022-10-18T01:30:31.035Z,0.00
2022-10-18T01:31:31.034Z,0.00
2022-10-18T01:32:31.006Z,0.00
2022-10-18T01:33:30.983Z,0.00
2022-10-18T01:34:31.089Z,0.00
2022-10-18T01:35:31.008Z,0.00
2022-10-18T01:36:30.959Z,0.00
2022-10-18T01:37:31.224Z,0.00
2022-10-18T01:38:30.940Z,0.00
2022-10-18T01:39:30.915Z,0.00
2022-10-18T01:40:30.925Z,0.00
2022-10-18T01:41:30.912Z,0.00
2022-10-18T01:42:30.897Z,0.00
2022-10-18T01:43:30.870Z,0.00
2022-10-18T01:44:30.869Z,0.00
2022-10-18T01:45:30.866Z,0.00
2022-10-18T01:46:30.853Z,0.00
2022-10-18T01:47:31.150Z,0.00
2022-10-18T01:48:30.813Z,0.00
2022-10-18T01:49:30.806Z,0.00
2022-10-18T01:50:30.836Z,0.00
2022-10-18T01:51:30.812Z,0.00
2022-10-18T01:52:31.060Z,0.00
2022-10-18T01:53:30.786Z,0.00
2022-10-18T01:54:30.749Z,0.00
2022-10-18T01:55:30.750Z,0.00
2022-10-18T01:56:30.733Z,0.00
2022-10-18T01:57:30.717Z,0.00
2022-10-18T01:58:30.719Z,0.00
2022-10-18T01:59:30.697Z,0.00
2022-10-18T02:00:30.697Z,0.00
2022-10-18T02:01:30.712Z,0.00
2022-10-18T02:02:31.121Z,0.00
2022-10-18T02:03:30.660Z,0.00
2022-10-18T02:04:30.653Z,0.00
2022-10-18T02:05:30.662Z,0.00
2022-10-18T02:06:30.614Z,0.00
2022-10-18T02:07:30.616Z,0.00
2022-10-18T02:08:30.620Z,0.00
2022-10-18T02:09:30.614Z,0.00
2022-10-18T02:10:30.587Z,0.00
2022-10-18T02:11:30.562Z,0.00
2022-10-18T02:12:31.033Z,0.00
2022-10-18T02:13:30.555Z,0.00
2022-10-18T02:14:30.528Z,0.00
2022-10-18T02:15:30.526Z,0.00
2022-10-18T02:16:30.507Z,0.00
2022-10-18T02:17:30.507Z,0.00
2022-10-18T02:18:30.547Z,0.00
2022-10-18T02:19:30.486Z,0.00
2022-10-18T02:20:30.479Z,0.00
2022-10-18T02:21:30.459Z,0.00
2022-10-18T02:22:30.777Z,0.00
2022-10-18T02:23:30.428Z,0.00
2022-10-18T02:24:30.464Z,0.00
2022-10-18T02:25:30.416Z,0.00
2022-10-18T02:26:30.415Z,0.00
2022-10-18T02:27:30.409Z,0.00
2022-10-18T02:28:30.386Z,0.00
2022-10-18T02:29:30.391Z,0.00
2022-10-18T02:30:30.362Z,0.00
2022-10-18T02:31:30.381Z,0.00
2022-10-18T02:32:30.641Z,0.00
2022-10-18T02:33:30.324Z,0.00
2022-10-18T02:34:30.328Z,0.00
2022-10-18T02:35:30.304Z,0.00
2022-10-18T02:36:30.390Z,0.00
2022-10-18T02:37:30.307Z,0.00
2022-10-18T02:38:30.311Z,0.00
2022-10-18T02:39:30.272Z,0.00
2022-10-18T02:40:30.271Z,0.00
2022-10-18T02:41:30.323Z,0.00
2022-10-18T02:42:30.405Z,0.00
2022-10-18T02:43:30.224Z,0.00
2022-10-18T02:44:30.209Z,0.00
2022-10-18T02:45:30.194Z,0.00
2022-10-18T02:46:30.238Z,0.00
2022-10-18T02:47:30.452Z,0.00
2022-10-18T02:48:30.164Z,0.00
2022-10-18T02:49:30.195Z,0.00
2022-10-18T02:50:30.148Z,0.00
2022-10-18T02:51:30.129Z,0.00
2022-10-18T02:52:30.139Z,0.00
2022-10-18T02:53:30.113Z,0.00
2022-10-18T02:54:30.091Z,0.00
2022-10-18T02:55:30.088Z,0.00
2022-10-18T02:56:30.070Z,0.00
2022-10-18T02:57:30.470Z,0.00
2022-10-18T02:58:30.065Z,0.00
2022-10-18T02:59:30.084Z,0.00
2022-10-18T03:00:30.024Z,0.00
2022-10-18T03:01:30.049Z,0.00
2022-10-18T03:02:30.035Z,0.00
2022-10-18T03:03:29.994Z,0.00
2022-10-18T03:04:30.003Z,0.00
2022-10-18T03:05:29.995Z,0.00
2022-10-18T03:06:30.010Z,0.00
2022-10-18T03:07:30.173Z,0.00
2022-10-18T03:08:29.951Z,0.00
2022-10-18T03:09:29.944Z,0.00
2022-10-18T03:10:29.912Z,0.00
2022-10-18T03:11:29.899Z,0.00
2022-10-18T03:12:29.914Z,0.00
2022-10-18T03:14:29.870Z,0.00
2022-10-18T03:15:29.860Z,0.00
2022-10-18T03:16:29.840Z,0.00
2022-10-18T03:17:30.101Z,0.00
2022-10-18T03:18:29.836Z,0.00
2022-10-18T03:19:29.847Z,0.00
2022-10-18T03:20:29.857Z,0.00
2022-10-18T03:21:29.820Z,0.00
2022-10-18T03:23:29.784Z,0.00
2022-10-18T03:24:29.756Z,0.00
2022-10-18T03:25:29.747Z,0.00
2022-10-18T03:26:29.751Z,0.00
2022-10-18T03:27:30.031Z,0.00
2022-10-18T03:28:29.804Z,0.00
2022-10-18T03:29:29.719Z,0.00
2022-10-18T03:30:29.740Z,0.00
2022-10-18T03:32:30.007Z,0.00
2022-10-18T03:33:29.674Z,0.00
2022-10-18T03:34:29.686Z,0.00
2022-10-18T03:35:29.666Z,0.00
2022-10-18T03:36:29.648Z,0.00
2022-10-18T03:37:29.625Z,0.00
2022-10-18T03:38:29.615Z,0.00
2022-10-18T03:39:29.592Z,0.00
2022-10-18T03:41:29.578Z,0.00
2022-10-18T03:42:30.101Z,0.00
2022-10-18T03:43:29.568Z,0.00
2022-10-18T03:44:29.569Z,0.00
2022-10-18T03:45:31.312Z,0.00
2022-10-18T03:46:29.521Z,0.00
2022-10-18T03:47:29.500Z,0.00
2022-10-18T03:48:29.519Z,0.00
2022-10-18T03:49:29.562Z,0.00
2022-10-18T03:50:29.505Z,0.00
2022-10-18T03:51:29.538Z,0.00
2022-10-18T03:52:29.855Z,0.00
2022-10-18T03:53:29.458Z,0.00
2022-10-18T03:54:29.422Z,0.00
2022-10-18T03:55:29.433Z,0.00
2022-10-18T03:56:29.440Z,0.00
2022-10-18T03:57:29.395Z,0.00
2022-10-18T03:58:29.469Z,0.00
2022-10-18T03:59:29.397Z,0.00
2022-10-18T04:00:29.373Z,0.00
2022-10-18T04:01:29.426Z,0.00
2022-10-18T04:02:29.553Z,0.00
2022-10-18T04:03:29.334Z,0.00
2022-10-18T04:04:29.315Z,0.00
2022-10-18T04:05:29.336Z,0.00
2022-10-18T04:06:29.310Z,0.00
2022-10-18T04:07:29.344Z,0.00
2022-10-18T04:08:29.284Z,0.00
2022-10-18T04:09:29.269Z,0.00
2022-10-18T04:10:29.280Z,0.00
2022-10-18T04:11:35.801Z,0.00
2022-10-18T04:12:29.491Z,0.00
2022-10-18T04:13:29.230Z,0.00
2022-10-18T04:14:29.217Z,0.00
2022-10-18T04:15:29.222Z,0.00
2022-10-18T04:16:29.241Z,0.00
2022-10-18T04:17:29.395Z,0.00
2022-10-18T04:18:29.162Z,0.00
2022-10-18T04:19:29.184Z,0.00
2022-10-18T04:20:29.165Z,0.00
2022-10-18T04:21:29.128Z,0.00
2022-10-18T04:22:29.202Z,0.00
2022-10-18T04:23:29.106Z,0.00
2022-10-18T04:24:29.135Z,0.00
2022-10-18T04:25:29.088Z,0.00
2022-10-18T04:26:29.088Z,0.00
2022-10-18T04:27:29.298Z,0.00
2022-10-18T04:28:29.083Z,0.00
2022-10-18T04:29:29.065Z,0.00
2022-10-18T04:30:29.041Z,0.00
2022-10-18T04:31:29.022Z,0.00
2022-10-18T04:32:29.120Z,0.00
2022-10-18T04:33:29.002Z,0.00
2022-10-18T04:34:28.995Z,0.00
2022-10-18T04:35:28.971Z,0.00
2022-10-18T04:36:28.967Z,0.00
2022-10-18T04:37:29.090Z,0.00
2022-10-18T04:38:28.953Z,0.00
2022-10-18T04:39:28.929Z,0.00
2022-10-18T04:40:28.930Z,0.00
2022-10-18T04:41:28.973Z,0.00
2022-10-18T04:42:28.943Z,0.00
2022-10-18T04:43:28.877Z,0.00
2022-10-18T04:44:28.887Z,0.00
2022-10-18T04:45:28.887Z,0.00
2022-10-18T04:46:28.864Z,0.00
2022-10-18T04:47:29.085Z,0.00
2022-10-18T04:48:28.830Z,0.00
2022-10-18T04:49:28.834Z,0.00
2022-10-18T04:50:28.830Z,0.00
2022-10-18T04:51:28.823Z,0.00
2022-10-18T04:52:28.808Z,0.00
2022-10-18T04:53:28.865Z,0.00
2022-10-18T04:54:28.792Z,0.00
2022-10-18T04:55:28.750Z,0.00
2022-10-18T04:56:28.753Z,0.00
2022-10-18T04:57:28.856Z,0.00
2022-10-18T04:58:28.742Z,0.00
2022-10-18T04:59:28.746Z,0.00
2022-10-18T05:00:28.704Z,0.00
2022-10-18T05:01:28.707Z,0.00
2022-10-18T05:02:28.838Z,0.00
2022-10-18T05:03:28.677Z,0.00
2022-10-18T05:04:29.023Z,0.00
2022-10-18T05:05:43.497Z,0.00
2022-10-18T05:06:28.638Z,0.00
2022-10-18T05:07:28.656Z,0.00
2022-10-18T05:08:28.609Z,0.00
2022-10-18T05:09:28.622Z,0.00
2022-10-18T05:10:28.604Z,0.00
2022-10-18T05:11:28.581Z,0.00
2022-10-18T05:12:28.595Z,0.00
2022-10-18T05:13:28.543Z,0.00
2022-10-18T05:14:28.542Z,0.00
2022-10-18T05:15:28.532Z,0.00
2022-10-18T05:16:28.521Z,0.00
2022-10-18T05:17:28.523Z,0.00
2022-10-18T05:18:28.510Z,0.00
2022-10-18T05:19:28.517Z,0.00
2022-10-18T05:20:28.478Z,0.00
2022-10-18T05:21:34.996Z,0.00
2022-10-18T05:22:28.570Z,0.00
2022-10-18T05:23:28.477Z,0.00
2022-10-18T05:24:28.481Z,0.00
2022-10-18T05:25:28.435Z,0.00
2022-10-18T05:26:28.433Z,0.00
2022-10-18T05:27:28.388Z,0.00
2022-10-18T05:28:43.876Z,0.00
2022-10-18T05:30:28.368Z,0.00
2022-10-18T05:31:28.354Z,0.00
2022-10-18T05:32:28.348Z,0.00
2022-10-18T05:33:28.325Z,4.00
2022-10-18T05:34:28.444Z,4.00
2022-10-18T05:35:28.310Z,4.00
2022-10-18T05:36:28.862Z,4.00
2022-10-18T05:37:28.582Z,4.00
2022-10-18T05:38:28.336Z,4.00
2022-10-18T05:39:28.258Z,8.00
2022-10-18T05:40:28.257Z,4.00
2022-10-18T05:41:28.448Z,8.00
2022-10-18T05:42:28.480Z,8.00
2022-10-18T05:43:28.840Z,12.00
2022-10-18T05:44:28.233Z,12.00
2022-10-18T05:45:28.201Z,16.00
2022-10-18T05:46:28.215Z,16.00
2022-10-18T05:47:28.236Z,16.00
2022-10-18T05:48:28.167Z,20.00
2022-10-18T05:49:28.144Z,20.00
2022-10-18T05:50:28.157Z,24.00
2022-10-18T05:51:28.137Z,28.00
2022-10-18T05:52:28.123Z,32.00
2022-10-18T05:53:43.449Z,32.00
2022-10-18T05:54:28.156Z,36.00
2022-10-18T05:55:28.141Z,36.00
2022-10-18T05:56:28.405Z,36.00
2022-10-18T05:57:28.266Z,32.00
2022-10-18T05:58:28.058Z,36.00
2022-10-18T05:59:28.252Z,40.00
2022-10-18T06:00:28.019Z,44.00
2022-10-18T06:01:28.038Z,48.00
2022-10-18T06:02:28.029Z,52.00
2022-10-18T06:03:28.002Z,56.00
2022-10-18T06:04:27.980Z,56.00
2022-10-18T06:05:28.043Z,64.00
2022-10-18T06:06:27.962Z,68.00
2022-10-18T06:07:28.574Z,72.00
2022-10-18T06:08:28.857Z,76.00
2022-10-18T06:09:27.981Z,72.00
2022-10-18T06:10:27.929Z,80.00
2022-10-18T06:11:34.475Z,92.00
2022-10-18T06:12:31.094Z,112.00
2022-10-18T06:13:31.079Z,124.00
2022-10-18T06:14:27.885Z,128.00
2022-10-18T06:15:28.104Z,140.00
2022-10-18T06:16:32.241Z,152.00
2022-10-18T06:17:31.692Z,168.00
2022-10-18T06:18:27.846Z,176.00
2022-10-18T06:19:27.834Z,180.00
2022-10-18T06:20:27.836Z,180.00
2022-10-18T06:21:27.796Z,184.00
2022-10-18T06:22:27.787Z,188.00
2022-10-18T06:23:27.790Z,192.00
2022-10-18T06:24:27.751Z,196.00
2022-10-18T06:25:27.756Z,204.00
2022-10-18T06:26:27.836Z,204.00
2022-10-18T06:27:27.754Z,204.00
2022-10-18T06:28:27.746Z,212.00
2022-10-18T06:29:27.927Z,232.00
2022-10-18T06:30:27.719Z,260.00
2022-10-18T06:31:28.611Z,296.00
2022-10-18T06:32:27.675Z,336.00
2022-10-18T06:33:27.664Z,384.00
2022-10-18T06:34:27.655Z,428.00
2022-10-18T06:35:27.655Z,476.00
2022-10-18T06:36:27.838Z,520.00
2022-10-18T06:37:27.687Z,564.00
2022-10-18T06:38:27.651Z,608.00
2022-10-18T06:39:27.809Z,668.00
2022-10-18T06:40:28.378Z,716.00
2022-10-18T06:41:28.389Z,764.00
2022-10-18T06:42:29.343Z,800.00
2022-10-18T06:43:28.479Z,840.00
2022-10-18T06:44:27.585Z,868.00
2022-10-18T06:45:27.555Z,892.00
2022-10-18T06:46:27.527Z,916.00
2022-10-18T06:47:27.515Z,928.00
2022-10-18T06:48:27.511Z,944.00
2022-10-18T06:49:27.703Z,960.00
2022-10-18T06:50:27.480Z,988.00
2022-10-18T06:51:27.687Z,1032.00
2022-10-18T06:52:27.458Z,1088.00
2022-10-18T06:53:27.474Z,1140.00
2022-10-18T06:54:27.806Z,1180.00
2022-10-18T06:55:27.458Z,1212.00
2022-10-18T06:56:27.402Z,1212.00
2022-10-18T06:57:27.478Z,1216.00
2022-10-18T06:58:27.380Z,1268.00
2022-10-18T06:59:30.387Z,1332.00
2022-10-18T07:00:27.374Z,1376.00
2022-10-18T07:01:27.465Z,1396.00
2022-10-18T07:02:27.348Z,1408.00
2022-10-18T07:03:27.339Z,1432.00
2022-10-18T07:04:27.730Z,1496.00
2022-10-18T07:05:27.371Z,1604.00
2022-10-18T07:06:27.324Z,1704.00
2022-10-18T07:07:27.294Z,1756.00
2022-10-18T07:08:27.293Z,1768.00
2022-10-18T07:09:27.471Z,1760.00
2022-10-18T07:10:27.261Z,1720.00
2022-10-18T07:11:27.259Z,1720.00
2022-10-18T07:12:27.227Z,1824.00
2022-10-18T07:13:32.337Z,2004.00
2022-10-18T07:14:29.135Z,2196.00
2022-10-18T07:15:28.450Z,2340.00
2022-10-18T07:16:27.175Z,2440.00
2022-10-18T07:17:27.194Z,2496.00
2022-10-18T07:18:27.204Z,2544.00
2022-10-18T07:19:27.191Z,2632.00
2022-10-18T07:20:30.149Z,2712.00
2022-10-18T07:21:27.128Z,2784.00
2022-10-18T07:22:30.239Z,2848.00
2022-10-18T07:23:27.121Z,2908.00
2022-10-18T07:24:29.941Z,2892.00
2022-10-18T07:25:30.585Z,2852.00
2022-10-18T07:26:27.064Z,2936.00
2022-10-18T07:27:29.074Z,3160.00
2022-10-18T07:28:27.135Z,3412.00
2022-10-18T07:29:27.908Z,3592.00
2022-10-18T07:30:30.816Z,3716.00
2022-10-18T07:31:27.900Z,3828.00
2022-10-18T07:32:27.900Z,3940.00
2022-10-18T07:33:27.009Z,4068.00
2022-10-18T07:34:27.070Z,4188.00
2022-10-18T07:35:26.999Z,4256.00
2022-10-18T07:36:26.979Z,4196.00
2022-10-18T07:37:29.407Z,4036.00
2022-10-18T07:38:27.855Z,3916.00
2022-10-18T07:39:26.928Z,3908.00
2022-10-18T07:40:27.179Z,3936.00
2022-10-18T07:41:34.463Z,3916.00
2022-10-18T07:42:26.933Z,3816.00
2022-10-18T07:43:26.911Z,3732.00
2022-10-18T07:44:26.901Z,3756.00
2022-10-18T07:45:26.922Z,3796.00
2022-10-18T07:46:26.871Z,3756.00
2022-10-18T07:47:29.012Z,3812.00
2022-10-18T07:48:27.437Z,4092.00
2022-10-18T07:49:27.041Z,4296.00
2022-10-18T07:50:27.358Z,4456.00
2022-10-18T07:51:26.816Z,4236.00
2022-10-18T07:52:26.998Z,4204.00
2022-10-18T07:53:26.768Z,4224.00
2022-10-18T07:54:26.775Z,4180.00
2022-10-18T07:55:27.004Z,4060.00
2022-10-18T07:56:26.780Z,3784.00
2022-10-18T07:57:26.959Z,3792.00
2022-10-18T07:58:26.715Z,3812.00
2022-10-18T07:59:26.793Z,3952.00
2022-10-18T08:00:28.479Z,4256.00
2022-10-18T08:01:29.758Z,4628.00
2022-10-18T08:02:26.682Z,5048.00
2022-10-18T08:03:27.806Z,5136.00
2022-10-18T08:04:26.672Z,4908.00
2022-10-18T08:05:26.927Z,4652.00
2022-10-18T08:06:30.809Z,4588.00
2022-10-18T08:07:27.550Z,4664.00
2022-10-18T08:08:26.625Z,4652.00
2022-10-18T08:09:26.628Z,4564.00
2022-10-18T08:10:26.627Z,4432.00
2022-10-18T08:11:26.846Z,4256.00
2022-10-18T08:12:26.801Z,4172.00
2022-10-18T08:13:27.446Z,4168.00
2022-10-18T08:14:26.760Z,4332.00
2022-10-18T08:15:48.565Z,4452.00
2022-10-18T08:16:28.226Z,4568.00
2022-10-18T08:17:26.565Z,4636.00
2022-10-18T08:18:27.492Z,4768.00
2022-10-18T08:19:28.020Z,5216.00
2022-10-18T08:20:30.717Z,5696.00
2022-10-18T08:21:26.701Z,6088.00
2022-10-18T08:22:27.446Z,6568.00
2022-10-18T08:23:26.979Z,7036.00
2022-10-18T08:24:26.455Z,7336.00
2022-10-18T08:25:26.453Z,7684.00
2022-10-18T08:26:26.419Z,8196.00
2022-10-18T08:27:27.028Z,8252.00
2022-10-18T08:28:27.059Z,8572.00
2022-10-18T08:29:29.331Z,9580.00
2022-10-18T08:30:26.623Z,9764.00
2022-10-18T08:31:26.583Z,10172.00
2022-10-18T08:32:28.624Z,11332.00
2022-10-18T08:33:26.339Z,11236.00
2022-10-18T08:34:27.794Z,9408.00
2022-10-18T08:35:36.400Z,7868.00
2022-10-18T08:36:27.063Z,7072.00
2022-10-18T08:37:26.499Z,7132.00
2022-10-18T08:38:26.285Z,7020.00
2022-10-18T08:39:26.313Z,6904.00
2022-10-18T08:40:26.269Z,7736.00
2022-10-18T08:41:26.760Z,7580.00
2022-10-18T08:42:26.227Z,6936.00
2022-10-18T08:43:27.003Z,6088.00
2022-10-18T08:44:27.843Z,5572.00
2022-10-18T08:45:42.000Z,5312.00
2022-10-18T08:46:33.750Z,5080.00
2022-10-18T08:47:33.218Z,4868.00
2022-10-18T08:48:28.143Z,4972.00
2022-10-18T08:49:26.169Z,5036.00
2022-10-18T08:50:26.136Z,4996.00
2022-10-18T08:51:27.231Z,4880.00
2022-10-18T08:52:26.265Z,4736.00
2022-10-18T08:53:26.116Z,4748.00
2022-10-18T08:54:27.001Z,4844.00
2022-10-18T08:55:26.096Z,4852.00
2022-10-18T08:56:26.109Z,4796.00
2022-10-18T08:57:26.098Z,4476.00
2022-10-18T08:58:26.053Z,4240.00
2022-10-18T08:59:27.608Z,4180.00
2022-10-18T09:00:27.035Z,3984.00
2022-10-18T09:01:27.131Z,3828.00
2022-10-18T09:02:27.936Z,3836.00
2022-10-18T09:03:26.111Z,3888.00
2022-10-18T09:04:27.839Z,4200.00
2022-10-18T09:05:26.174Z,4612.00
2022-10-18T09:06:25.965Z,4916.00
2022-10-18T09:07:27.990Z,4944.00
2022-10-18T09:08:26.154Z,4948.00
2022-10-18T09:09:25.954Z,4876.00
2022-10-18T09:10:31.462Z,5004.00
2022-10-18T09:11:33.475Z,5400.00
2022-10-18T09:12:25.898Z,5564.00
2022-10-18T09:13:29.386Z,5512.00
2022-10-18T09:14:26.554Z,5208.00
2022-10-18T09:15:25.895Z,5208.00
2022-10-18T09:16:25.862Z,5288.00
2022-10-18T09:17:25.869Z,5116.00
2022-10-18T09:18:25.863Z,4792.00
2022-10-18T09:19:26.509Z,5212.00
2022-10-18T09:20:28.425Z,5624.00
2022-10-18T09:21:25.802Z,5776.00
2022-10-18T09:22:25.983Z,5880.00
2022-10-18T09:23:25.794Z,5872.00
2022-10-18T09:24:25.764Z,5416.00
2022-10-18T09:25:25.790Z,5192.00
2022-10-18T09:26:26.242Z,5280.00
2022-10-18T09:27:26.952Z,5580.00
2022-10-18T09:28:25.791Z,5784.00
2022-10-18T09:29:25.718Z,5796.00
2022-10-18T09:30:33.812Z,5896.00
2022-10-18T09:31:26.023Z,6196.00
2022-10-18T09:32:29.090Z,6760.00
2022-10-18T09:33:25.893Z,7852.00
2022-10-18T09:34:25.658Z,8680.00
2022-10-18T09:35:34.270Z,9220.00
2022-10-18T09:36:29.115Z,8896.00
2022-10-18T09:37:25.836Z,8056.00
2022-10-18T09:39:26.168Z,6348.00
2022-10-18T09:40:26.547Z,5884.00
2022-10-18T09:41:26.677Z,5540.00
2022-10-18T09:42:25.608Z,5316.00
2022-10-18T09:43:27.950Z,5260.00
2022-10-18T09:44:27.494Z,5312.00
2022-10-18T09:45:26.543Z,5344.00
2022-10-18T09:46:27.689Z,5368.00
2022-10-18T09:47:28.147Z,5620.00
2022-10-18T09:48:25.501Z,5844.00
2022-10-18T09:49:25.499Z,5768.00
2022-10-18T09:50:30.966Z,5500.00
2022-10-18T09:51:25.464Z,5280.00
2022-10-18T09:52:26.815Z,5372.00
2022-10-18T09:53:25.441Z,5824.00
2022-10-18T09:54:25.445Z,6024.00
2022-10-18T09:55:31.329Z,6012.00
2022-10-18T09:56:25.430Z,6120.00
2022-10-18T09:57:25.406Z,6304.00
2022-10-18T09:58:26.080Z,6136.00
2022-10-18T09:59:26.451Z,5532.00
2022-10-18T10:00:25.627Z,4572.00
2022-10-18T10:01:26.018Z,3684.00
2022-10-18T10:02:25.396Z,3224.00
2022-10-18T10:03:26.678Z,3260.00
2022-10-18T10:04:26.035Z,3692.00
2022-10-18T10:05:26.029Z,4068.00
2022-10-18T10:06:25.348Z,4408.00
2022-10-18T10:07:27.691Z,4764.00
2022-10-18T10:09:10.930Z,5372.00
2022-10-18T10:09:25.842Z,6244.00
2022-10-18T10:10:30.782Z,6980.00
2022-10-18T10:11:25.799Z,7452.00
2022-10-18T10:12:26.789Z,7880.00
2022-10-18T10:13:25.429Z,8512.00
2022-10-18T10:14:25.238Z,9180.00
2022-10-18T10:15:27.078Z,9860.00
2022-10-18T10:16:25.194Z,10308.00
2022-10-18T10:17:25.163Z,9980.00
2022-10-18T10:18:25.191Z,8872.00
2022-10-18T10:19:26.257Z,7740.00
2022-10-18T10:20:25.187Z,6872.00
2022-10-18T10:21:41.734Z,6248.00
2022-10-18T10:22:25.239Z,6052.00
2022-10-18T10:23:25.115Z,5988.00
2022-10-18T10:24:27.468Z,5944.00
2022-10-18T10:25:25.315Z,6268.00
2022-10-18T10:26:25.087Z,7124.00
2022-10-18T10:27:25.484Z,7956.00
2022-10-18T10:28:25.129Z,8364.00
2022-10-18T10:29:43.562Z,8540.00
2022-10-18T10:30:25.037Z,8504.00
2022-10-18T10:31:25.010Z,8176.00
2022-10-18T10:32:25.050Z,7680.00
2022-10-18T10:33:24.991Z,7264.00
2022-10-18T10:34:25.037Z,6836.00
2022-10-18T10:35:35.507Z,6448.00
2022-10-18T10:36:24.976Z,6260.00
2022-10-18T10:37:24.966Z,6292.00
2022-10-18T10:38:24.969Z,6416.00
2022-10-18T10:39:24.950Z,6524.00
2022-10-18T10:40:27.801Z,6572.00
2022-10-18T10:41:26.328Z,6424.00
2022-10-18T10:42:24.901Z,6096.00
2022-10-18T10:43:37.040Z,5656.00
2022-10-18T10:44:25.100Z,5304.00
2022-10-18T10:45:24.866Z,5108.00
2022-10-18T10:46:25.056Z,5024.00
2022-10-18T10:47:25.286Z,5064.00
2022-10-18T10:48:28.817Z,5084.00
2022-10-18T10:49:39.768Z,4928.00
2022-10-18T10:50:25.050Z,4740.00
2022-10-18T10:51:24.798Z,4572.00
2022-10-18T10:52:28.764Z,4564.00
2022-10-18T10:53:25.558Z,4724.00
2022-10-18T10:54:24.766Z,4784.00
2022-10-18T10:55:34.789Z,4648.00
2022-10-18T10:56:25.168Z,4412.00
2022-10-18T10:57:24.967Z,4172.00
2022-10-18T10:58:24.738Z,3956.00
2022-10-18T10:59:25.702Z,3684.00
2022-10-18T11:00:25.560Z,3420.00
2022-10-18T11:01:31.274Z,3188.00
2022-10-18T11:02:24.675Z,3040.00
2022-10-18T11:03:29.521Z,2924.00
2022-10-18T11:04:24.918Z,2848.00
2022-10-18T11:05:39.661Z,2816.00
2022-10-18T11:06:24.846Z,2820.00
2022-10-18T11:07:25.750Z,2924.00
2022-10-18T11:08:24.605Z,3144.00
2022-10-18T11:09:24.798Z,3472.00
2022-10-18T11:10:24.597Z,3892.00
2022-10-18T11:11:24.612Z,4388.00
2022-10-18T11:12:24.594Z,4976.00
2022-10-18T11:13:24.555Z,5628.00
2022-10-18T11:14:26.222Z,6236.00
2022-10-18T11:15:24.551Z,6628.00
2022-10-18T11:16:24.528Z,6696.00
2022-10-18T11:17:24.517Z,6536.00
2022-10-18T11:18:24.510Z,6436.00
2022-10-18T11:19:26.374Z,6388.00
2022-10-18T11:20:24.467Z,6180.00
2022-10-18T11:21:24.467Z,5900.00
2022-10-18T11:22:24.451Z,5740.00
2022-10-18T11:23:24.436Z,5912.00
2022-10-18T11:24:24.427Z,6692.00
2022-10-18T11:25:24.431Z,7848.00
2022-10-18T11:26:24.425Z,8856.00
2022-10-18T11:27:24.398Z,9616.00
2022-10-18T11:28:24.431Z,10424.00
2022-10-18T11:29:24.376Z,11444.00
2022-10-18T11:30:24.574Z,12284.00
2022-10-18T11:31:24.392Z,12440.00
2022-10-18T11:32:24.392Z,12104.00
2022-10-18T11:33:33.706Z,11900.00
2022-10-18T11:34:24.346Z,11664.00
2022-10-18T11:35:24.322Z,11172.00
2022-10-18T11:37:39.335Z,10472.00
2022-10-18T11:38:24.288Z,10208.00
2022-10-18T11:39:24.258Z,9616.00
2022-10-18T11:40:24.261Z,8632.00
2022-10-18T11:41:24.237Z,7696.00
2022-10-18T11:42:24.236Z,7376.00
2022-10-18T11:43:30.115Z,7444.00
2022-10-18T11:44:24.209Z,7672.00
2022-10-18T11:45:24.230Z,7864.00
2022-10-18T11:46:24.201Z,7888.00
2022-10-18T11:47:24.236Z,7788.00
2022-10-18T11:48:24.159Z,7776.00
2022-10-18T11:49:24.197Z,8116.00
2022-10-18T11:50:24.167Z,8808.00
2022-10-18T11:51:33.956Z,9628.00
2022-10-18T11:52:24.237Z,10004.00
2022-10-18T11:53:24.111Z,10092.00
2022-10-18T11:54:24.094Z,9996.00
2022-10-18T11:55:26.601Z,9632.00
2022-10-18T11:56:24.089Z,9660.00
2022-10-18T11:57:24.072Z,9372.00
2022-10-18T11:58:24.061Z,9736.00
2022-10-18T11:59:24.099Z,12044.00
2022-10-18T12:00:24.133Z,16444.00
2022-10-18T12:01:27.662Z,19456.00
2022-10-18T12:02:24.185Z,21984.00
2022-10-18T12:03:24.198Z,23968.00
2022-10-18T12:04:23.993Z,20864.00
2022-10-18T12:05:24.796Z,17056.00
2022-10-18T12:06:23.987Z,16416.00
2022-10-18T12:07:27.757Z,16516.00
2022-10-18T12:08:23.976Z,15844.00
2022-10-18T12:09:23.967Z,14576.00
2022-10-18T12:10:37.696Z,13508.00
2022-10-18T12:11:23.933Z,13604.00
2022-10-18T12:12:25.555Z,15076.00
2022-10-18T12:13:30.665Z,18400.00
2022-10-18T12:14:24.784Z,24992.00
2022-10-18T12:15:23.956Z,31104.00
2022-10-18T12:16:45.652Z,26624.00
2022-10-18T12:18:24.294Z,20960.00
2022-10-18T12:19:26.623Z,30336.00
2022-10-18T12:20:23.817Z,30880.00
2022-10-18T12:21:25.782Z,33664.00
2022-10-18T12:22:23.832Z,24032.00
2022-10-18T12:23:23.807Z,21376.00
2022-10-18T12:24:23.802Z,18432.00
2022-10-18T12:25:23.752Z,22048.00
2022-10-18T12:26:23.741Z,19200.00
2022-10-18T12:27:23.748Z,18144.00
2022-10-18T12:28:23.915Z,11464.00
2022-10-18T12:29:23.771Z,10444.00
2022-10-18T12:30:23.705Z,8968.00
2022-10-18T12:31:23.687Z,8820.00
2022-10-18T12:32:23.698Z,8416.00
2022-10-18T12:33:28.277Z,7544.00
2022-10-18T12:34:23.800Z,6368.00
2022-10-18T12:35:23.653Z,5648.00
2022-10-18T12:36:23.650Z,5248.00
2022-10-18T12:37:23.671Z,5128.00
2022-10-18T12:38:23.679Z,5536.00
2022-10-18T12:39:32.449Z,6032.00
2022-10-18T12:40:23.601Z,5868.00
2022-10-18T12:41:23.588Z,5480.00
2022-10-18T12:42:23.583Z,5196.00
2022-10-18T12:43:23.588Z,4836.00
2022-10-18T12:44:23.755Z,4656.00
2022-10-18T12:45:23.562Z,4632.00
2022-10-18T12:46:23.590Z,4568.00